createdAt,value
2017-10-04T00:02:18.645Z,9.20
2017-10-04T00:04:46.450Z,8.68
2017-10-04T00:07:14.200Z,9.35
2017-10-04T00:09:41.953Z,9.35
2017-10-04T00:12:10.703Z,11.43
2017-10-04T00:14:38.448Z,10.43
2017-10-04T00:17:06.200Z,9.70
2017-10-04T00:19:34.008Z,11.90
2017-10-04T00:22:01.758Z,14.55
2017-10-04T00:24:29.506Z,12.63
2017-10-04T00:26:57.343Z,11.25
2017-10-04T00:29:25.091Z,8.48
2017-10-04T00:31:52.847Z,12.63
2017-10-04T00:34:20.649Z,9.73
2017-10-04T00:36:48.399Z,10.05
2017-10-04T00:39:16.152Z,13.62
2017-10-04T00:41:43.959Z,10.90
2017-10-04T00:44:11.708Z,11.12
2017-10-04T00:46:39.462Z,12.13
2017-10-04T00:49:07.278Z,10.43
2017-10-04T00:51:35.024Z,11.90
2017-10-04T00:54:03.543Z,12.10
2017-10-04T00:56:31.347Z,13.07
2017-10-04T00:58:59.098Z,11.90
2017-10-04T01:01:26.851Z,15.02
2017-10-04T01:03:55.411Z,9.60
2017-10-04T01:06:23.158Z,14.02
2017-10-04T01:08:50.912Z,17.02
2017-10-04T01:11:18.724Z,11.80
2017-10-04T01:13:46.473Z,10.75
2017-10-04T01:16:14.219Z,12.37
2017-10-04T01:18:42.053Z,12.40
2017-10-04T01:21:09.822Z,15.15
2017-10-04T01:23:37.572Z,8.48
2017-10-04T01:26:05.379Z,8.60
2017-10-04T01:28:33.130Z,10.70
2017-10-04T01:31:00.886Z,14.05
2017-10-04T01:33:28.691Z,12.07
2017-10-04T01:35:56.447Z,9.50
2017-10-04T01:38:24.196Z,10.95
2017-10-04T01:40:52.099Z,10.63
2017-10-04T01:43:20.615Z,9.63
2017-10-04T01:45:48.376Z,12.60
2017-10-04T01:48:16.179Z,9.75
2017-10-04T01:50:43.932Z,11.73
2017-10-04T01:53:11.675Z,9.63
2017-10-04T01:55:39.479Z,14.65
2017-10-04T01:58:08.011Z,10.18
2017-10-04T02:00:35.762Z,10.07
2017-10-04T02:03:03.572Z,10.82
2017-10-04T02:05:31.320Z,8.63
2017-10-04T02:07:59.071Z,11.82
2017-10-04T02:10:26.880Z,9.20
2017-10-04T02:12:55.391Z,11.07
2017-10-04T02:15:23.139Z,8.45
2017-10-04T02:17:50.942Z,10.63
2017-10-04T02:20:18.691Z,10.50
2017-10-04T02:22:47.203Z,11.55
2017-10-04T02:25:15.002Z,7.40
2017-10-04T02:27:42.749Z,10.20
2017-10-04T02:30:10.492Z,7.68
2017-10-04T02:32:39.060Z,10.23
2017-10-04T02:35:06.804Z,8.82
2017-10-04T02:37:34.555Z,14.25
2017-10-04T02:40:02.368Z,10.75
2017-10-04T02:42:30.888Z,6.70
2017-10-04T02:44:58.634Z,7.70
2017-10-04T02:47:26.459Z,8.43
2017-10-04T02:49:54.207Z,10.13
2017-10-04T02:52:21.956Z,12.07
2017-10-04T02:54:49.764Z,7.78
2017-10-04T02:57:18.286Z,9.68
2017-10-04T02:59:46.035Z,9.73
2017-10-04T03:02:13.852Z,6.32
2017-10-04T03:04:42.362Z,9.30
2017-10-04T03:07:10.103Z,8.95
2017-10-04T03:09:38.671Z,12.43
2017-10-04T03:12:07.184Z,8.43
2017-10-04T03:14:34.940Z,9.00
2017-10-04T03:17:02.748Z,6.85
2017-10-04T03:19:30.499Z,10.65
2017-10-04T03:21:58.247Z,8.00
2017-10-04T03:24:26.051Z,11.80
2017-10-04T03:26:53.790Z,10.95
2017-10-04T03:29:21.534Z,9.55
2017-10-04T03:31:49.343Z,7.43
2017-10-04T03:34:17.852Z,10.05
2017-10-04T03:36:45.599Z,7.15
2017-10-04T03:39:14.171Z,10.07
2017-10-04T03:41:42.678Z,5.57
2017-10-04T03:44:10.428Z,11.75
2017-10-04T03:46:38.239Z,7.20
2017-10-04T03:49:05.989Z,9.65
2017-10-04T03:51:33.742Z,10.32
2017-10-04T03:54:01.543Z,7.75
2017-10-04T03:56:29.295Z,13.20
2017-10-04T03:58:57.060Z,11.25
2017-10-04T04:01:25.162Z,11.55
2017-10-04T04:03:52.906Z,7.12
2017-10-04T04:06:21.418Z,8.23
2017-10-04T04:08:49.229Z,10.13
2017-10-04T04:11:16.971Z,8.68
2017-10-04T04:13:44.726Z,10.90
2017-10-04T04:16:12.774Z,6.87
2017-10-04T04:18:40.527Z,10.55
2017-10-04T04:21:08.281Z,8.93
2017-10-04T04:23:36.079Z,9.15
2017-10-04T04:26:03.824Z,10.73
2017-10-04T04:28:31.588Z,12.60
2017-10-04T04:30:59.390Z,12.07
2017-10-04T04:33:27.136Z,7.68
2017-10-04T04:35:54.895Z,9.10
2017-10-04T04:38:34.583Z,7.80
2017-10-04T04:41:03.096Z,11.25
2017-10-04T04:43:30.847Z,8.60
2017-10-04T04:45:58.650Z,11.50
2017-10-04T04:48:26.409Z,8.70
2017-10-04T04:50:54.159Z,11.40
2017-10-04T04:53:21.968Z,11.10
2017-10-04T04:55:50.478Z,8.27
2017-10-04T04:58:18.223Z,10.82
2017-10-04T05:00:46.039Z,11.15
2017-10-04T05:03:13.792Z,8.43
2017-10-04T05:05:41.538Z,12.93
2017-10-04T05:08:09.336Z,7.65
2017-10-04T05:10:37.091Z,9.18
2017-10-04T05:13:04.835Z,10.93
2017-10-04T05:15:32.648Z,8.88
2017-10-04T05:18:01.174Z,13.43
2017-10-04T05:20:28.926Z,9.35
2017-10-04T05:22:56.727Z,8.55
2017-10-04T05:25:24.498Z,15.57
2017-10-04T05:27:53.016Z,8.55
2017-10-04T05:30:20.818Z,13.40
2017-10-04T05:32:48.563Z,8.02
2017-10-04T05:35:16.311Z,8.55
2017-10-04T05:37:44.123Z,10.90
2017-10-04T05:40:11.871Z,10.15
2017-10-04T05:42:39.619Z,9.35
2017-10-04T05:45:07.432Z,9.55
2017-10-04T05:47:35.179Z,9.35
2017-10-04T05:50:03.700Z,9.98
2017-10-04T05:52:31.504Z,7.78
2017-10-04T05:54:59.272Z,14.18
2017-10-04T05:57:27.028Z,13.75
2017-10-04T05:59:54.832Z,6.60
2017-10-04T06:02:22.600Z,10.48
2017-10-04T06:04:50.351Z,8.75
2017-10-04T06:07:18.156Z,9.75
2017-10-04T06:09:45.902Z,8.73
2017-10-04T06:12:13.653Z,8.60
2017-10-04T06:14:42.227Z,8.20
2017-10-04T06:17:09.992Z,8.55
2017-10-04T06:19:37.752Z,9.80
2017-10-04T06:22:05.587Z,5.10
2017-10-04T06:24:34.105Z,9.15
2017-10-04T06:27:03.068Z,6.95
2017-10-04T06:29:30.883Z,11.27
2017-10-04T06:31:58.652Z,6.20
2017-10-04T06:34:26.415Z,17.62
2017-10-04T06:36:54.224Z,10.52
2017-10-04T06:39:21.994Z,8.30
2017-10-04T06:41:49.744Z,7.93
2017-10-04T06:44:17.554Z,9.13
2017-10-04T06:46:45.312Z,7.37
2017-10-04T06:49:13.071Z,6.47
2017-10-04T06:51:40.898Z,11.07
2017-10-04T06:54:08.651Z,9.88
2017-10-04T06:56:36.395Z,7.93
2017-10-04T06:59:04.966Z,5.03
2017-10-04T07:01:32.721Z,9.73
2017-10-04T07:04:00.471Z,8.50
2017-10-04T07:06:28.275Z,10.48
2017-10-04T07:08:56.045Z,10.98
2017-10-04T07:11:23.816Z,5.70
2017-10-04T07:13:51.649Z,7.32
2017-10-04T07:16:20.184Z,7.57
2017-10-04T07:18:47.954Z,5.85
2017-10-04T07:21:15.778Z,8.20
2017-10-04T07:23:43.538Z,5.62
2017-10-04T07:26:11.310Z,7.87
2017-10-04T07:28:39.137Z,6.43
2017-10-04T07:31:07.686Z,8.70
2017-10-04T07:33:35.512Z,7.80
2017-10-04T07:36:03.347Z,5.43
2017-10-04T07:38:31.880Z,4.55
2017-10-04T07:40:59.674Z,8.52
2017-10-04T07:43:27.501Z,4.37
2017-10-04T07:45:55.265Z,9.50
2017-10-04T07:48:23.030Z,8.20
2017-10-04T07:50:50.860Z,7.10
2017-10-04T07:53:18.628Z,5.03
2017-10-04T07:55:46.393Z,5.28
2017-10-04T07:58:14.218Z,6.25
2017-10-04T08:00:42.754Z,7.90
2017-10-04T08:03:10.528Z,3.83
2017-10-04T08:05:38.376Z,3.90
2017-10-04T08:08:06.145Z,6.60
2017-10-04T08:10:33.918Z,6.95
2017-10-04T08:13:01.750Z,5.78
2017-10-04T08:15:29.521Z,6.68
2017-10-04T08:17:57.290Z,4.70
2017-10-04T08:20:25.113Z,7.85
2017-10-04T08:22:52.881Z,5.87
2017-10-04T08:25:20.647Z,7.90
2017-10-04T08:27:48.477Z,6.00
2017-10-04T08:30:16.242Z,6.15
2017-10-04T08:32:44.776Z,5.20
2017-10-04T08:35:12.603Z,5.97
2017-10-04T08:37:40.369Z,5.15
2017-10-04T08:40:08.139Z,4.72
2017-10-04T08:42:35.985Z,6.50
2017-10-04T08:45:04.542Z,9.30
2017-10-04T09:01:03.885Z,5.28
2017-10-04T09:03:31.650Z,8.32
2017-10-04T09:06:03.410Z,8.55
2017-10-04T09:08:31.209Z,6.57
2017-10-04T09:10:59.743Z,7.10
2017-10-04T09:13:27.569Z,8.95
2017-10-04T09:15:55.328Z,6.43
2017-10-04T09:18:23.094Z,5.90
2017-10-04T09:20:50.941Z,6.30
2017-10-04T09:23:19.468Z,6.55
2017-10-04T09:25:47.234Z,6.40
2017-10-04T09:28:15.078Z,6.95
2017-10-04T09:30:42.863Z,5.87
2017-10-04T09:33:10.624Z,8.05
2017-10-04T09:35:38.449Z,5.72
2017-10-04T09:38:06.220Z,7.20
2017-10-04T09:40:33.986Z,6.50
2017-10-04T09:43:01.837Z,11.55
2017-10-04T09:45:29.600Z,8.05
2017-10-04T09:47:57.370Z,13.13
2017-10-04T09:50:25.194Z,9.35
2017-10-04T09:52:53.751Z,8.55
2017-10-04T09:55:21.518Z,8.20
2017-10-04T09:57:49.345Z,8.45
2017-10-04T10:00:17.115Z,8.30
2017-10-04T10:02:44.877Z,6.50
2017-10-04T10:05:12.702Z,8.57
2017-10-04T10:07:41.233Z,12.93
2017-10-04T10:10:08.999Z,7.65
2017-10-04T10:12:36.829Z,7.03
2017-10-04T10:15:04.598Z,9.68
2017-10-04T10:17:34.890Z,5.43
2017-10-04T10:20:01.762Z,6.72
2017-10-04T10:22:29.529Z,4.10
2017-10-04T10:24:57.333Z,7.25
2017-10-04T10:27:25.165Z,5.87
2017-10-04T10:29:52.934Z,5.53
2017-10-04T10:32:20.718Z,2.47
2017-10-04T10:34:48.541Z,3.33
2017-10-04T10:37:16.301Z,5.57
2017-10-04T10:39:44.072Z,3.55
2017-10-04T10:42:11.910Z,2.92
2017-10-04T10:44:39.669Z,5.12
2017-10-04T10:47:07.429Z,2.67
2017-10-04T10:49:35.257Z,3.87
2017-10-04T10:52:03.029Z,6.05
2017-10-04T10:54:31.566Z,5.40
2017-10-04T10:56:59.388Z,9.45
2017-10-04T10:59:27.197Z,6.90
2017-10-04T11:01:54.958Z,4.03
2017-10-04T11:04:22.798Z,3.87
2017-10-04T11:06:50.566Z,4.03
2017-10-04T11:09:18.330Z,2.95
2017-10-04T11:11:46.166Z,2.92
2017-10-04T11:14:13.934Z,7.65
2017-10-04T11:16:41.694Z,3.58
2017-10-04T11:19:09.529Z,6.10
2017-10-04T11:21:38.062Z,2.50
2017-10-04T11:24:05.831Z,4.45
2017-10-04T11:26:33.662Z,4.93
2017-10-04T11:29:01.425Z,2.35
2017-10-04T11:31:29.190Z,2.35
2017-10-04T11:33:57.019Z,5.93
2017-10-04T11:36:24.782Z,1.60
2017-10-04T11:38:52.550Z,4.05
2017-10-04T11:41:21.146Z,6.35
2017-10-04T11:43:48.924Z,3.83
2017-10-04T11:46:16.733Z,2.75
2017-10-04T11:48:44.558Z,5.37
2017-10-04T11:51:12.356Z,3.33
2017-10-04T11:53:40.120Z,5.00
2017-10-04T11:56:08.370Z,5.40
2017-10-04T11:58:36.147Z,3.50
2017-10-04T12:01:03.918Z,6.75
2017-10-04T12:03:31.757Z,4.85
2017-10-04T12:05:59.526Z,4.55
2017-10-04T12:08:27.294Z,3.75
2017-10-04T12:10:55.118Z,6.20
2017-10-04T12:13:22.880Z,5.03
2017-10-04T12:15:50.642Z,6.07
2017-10-04T12:18:18.470Z,4.60
2017-10-04T12:20:47.000Z,7.82
2017-10-04T12:23:14.789Z,5.87
2017-10-04T12:25:42.622Z,5.50
2017-10-04T12:28:10.389Z,6.70
2017-10-04T12:30:38.157Z,11.05
2017-10-04T12:33:06.077Z,3.75
2017-10-04T12:35:34.610Z,5.00
2017-10-04T12:38:02.378Z,3.20
2017-10-04T12:40:30.243Z,8.32
2017-10-04T12:42:58.033Z,5.87
2017-10-04T12:45:26.569Z,5.35
2017-10-04T12:47:54.401Z,9.38
2017-10-04T12:50:22.178Z,4.65
2017-10-04T12:52:49.955Z,5.03
2017-10-04T12:55:17.780Z,4.22
2017-10-04T12:57:45.556Z,5.75
2017-10-04T13:00:13.359Z,4.72
2017-10-04T13:02:41.193Z,4.00
2017-10-04T13:05:08.986Z,4.82
2017-10-04T13:07:36.753Z,5.20
2017-10-04T13:10:04.581Z,7.35
2017-10-04T13:12:32.354Z,6.10
2017-10-04T13:15:00.118Z,3.75
2017-10-04T13:17:27.946Z,6.03
2017-10-04T13:19:55.705Z,9.82
2017-10-04T13:22:23.478Z,5.35
2017-10-04T13:24:51.310Z,4.10
2017-10-04T13:27:19.846Z,6.75
2017-10-04T13:29:47.633Z,7.75
2017-10-04T13:32:15.465Z,5.40
2017-10-04T13:34:43.242Z,6.70
2017-10-04T13:37:11.038Z,12.02
2017-10-04T13:39:39.642Z,14.57
2017-10-04T13:42:07.462Z,19.23
2017-10-04T13:44:35.235Z,9.32
2017-10-04T13:47:03.080Z,15.63
2017-10-04T13:49:30.846Z,7.93
2017-10-04T13:51:58.618Z,8.02
2017-10-04T13:54:26.449Z,5.62
2017-10-04T13:56:54.214Z,5.80
2017-10-04T13:59:21.977Z,6.32
2017-10-04T14:01:49.953Z,9.60
2017-10-04T14:04:17.723Z,10.25
2017-10-04T14:06:45.505Z,13.00
2017-10-04T14:09:13.328Z,8.07
2017-10-04T14:11:41.118Z,10.63
2017-10-04T14:14:08.921Z,10.38
2017-10-04T14:16:36.757Z,10.05
2017-10-04T14:19:05.299Z,12.63
2017-10-04T14:21:33.065Z,7.20
2017-10-04T14:24:00.894Z,36.40
2017-10-04T14:26:28.686Z,60.60
2017-10-04T14:28:56.490Z,7.95
2017-10-04T14:31:25.097Z,6.12
2017-10-04T14:33:52.876Z,7.78
2017-10-04T14:36:20.651Z,6.20
2017-10-04T14:38:49.343Z,6.10
2017-10-04T14:41:17.113Z,5.30
2017-10-04T14:43:44.883Z,4.22
2017-10-04T14:46:12.731Z,6.50
2017-10-04T14:48:40.512Z,4.75
2017-10-04T14:51:08.294Z,4.87
2017-10-04T14:53:36.893Z,10.02
2017-10-04T14:56:04.694Z,9.00
2017-10-04T14:58:32.464Z,11.05
2017-10-04T15:01:00.303Z,6.45
2017-10-04T15:03:28.108Z,13.50
2017-10-04T15:05:55.881Z,8.35
2017-10-04T15:08:24.486Z,11.50
2017-10-04T15:10:52.255Z,6.37
2017-10-04T15:13:20.018Z,7.05
2017-10-04T15:15:47.844Z,6.57
2017-10-04T15:18:15.612Z,6.00
2017-10-04T15:20:44.146Z,7.60
2017-10-04T15:23:11.971Z,6.87
2017-10-04T15:25:40.508Z,8.20
2017-10-04T15:28:08.275Z,5.47
2017-10-04T15:30:36.097Z,6.25
2017-10-04T15:33:03.877Z,5.10
2017-10-04T15:35:31.643Z,5.75
2017-10-04T15:37:59.469Z,6.60
2017-10-04T15:40:27.246Z,6.97
2017-10-04T15:42:55.017Z,7.20
2017-10-04T15:45:22.861Z,7.47
2017-10-04T15:47:50.634Z,5.78
2017-10-04T15:50:18.423Z,7.70
2017-10-04T15:52:46.250Z,6.20
2017-10-04T15:55:14.038Z,5.80
2017-10-04T15:57:41.819Z,5.80
2017-10-04T16:00:09.643Z,7.93
2017-10-04T16:02:37.414Z,8.38
2017-10-04T16:05:05.220Z,7.20
2017-10-04T16:07:33.055Z,8.60
2017-10-04T16:10:00.818Z,7.90
2017-10-04T16:12:28.606Z,8.88
2017-10-04T16:14:56.426Z,9.15
2017-10-04T16:17:24.194Z,9.43
2017-10-04T16:19:51.960Z,6.10
2017-10-04T16:22:19.790Z,10.07
2017-10-04T16:24:47.558Z,7.03
2017-10-04T16:27:15.351Z,8.48
2017-10-04T16:29:43.175Z,7.47
2017-10-04T16:32:10.953Z,11.45
2017-10-04T16:34:38.756Z,11.12
2017-10-04T16:37:06.582Z,6.85
2017-10-04T16:39:34.353Z,8.10
2017-10-04T16:42:02.150Z,10.93
2017-10-04T16:44:30.003Z,11.45
2017-10-04T16:46:57.770Z,9.77
2017-10-04T16:49:25.587Z,6.80
2017-10-04T16:51:53.410Z,9.95
2017-10-04T16:54:21.188Z,9.00
2017-10-04T16:56:49.792Z,7.30
2017-10-04T16:59:18.469Z,7.97
2017-10-04T17:01:46.612Z,8.48
2017-10-04T17:04:15.413Z,9.45
2017-10-04T17:06:44.125Z,9.23
2017-10-04T17:09:12.121Z,13.52
2017-10-04T17:11:39.986Z,14.15
2017-10-04T17:14:07.833Z,9.98
2017-10-04T17:16:35.896Z,9.57
2017-10-04T17:19:03.719Z,11.55
2017-10-04T17:21:32.531Z,10.15
2017-10-04T17:24:01.094Z,12.18
2017-10-04T17:26:29.876Z,19.17
2017-10-04T17:28:58.783Z,29.15
2017-10-04T17:31:26.819Z,36.58
2017-10-04T17:33:55.387Z,23.73
2017-10-04T17:36:23.352Z,21.62
2017-10-04T17:38:51.945Z,24.98
2017-10-04T17:41:20.544Z,25.33
2017-10-04T17:43:48.651Z,25.08
2017-10-04T17:46:17.659Z,26.42
2017-10-04T17:48:45.659Z,24.10
2017-10-04T17:51:14.082Z,37.88
2017-10-04T17:53:41.903Z,35.55
2017-10-04T17:56:10.489Z,23.38
2017-10-04T17:58:38.448Z,27.33
2017-10-04T18:01:06.397Z,22.62
2017-10-04T18:03:34.227Z,25.62
2017-10-04T18:06:02.148Z,27.52
2017-10-04T18:08:29.935Z,30.25
2017-10-04T18:10:57.737Z,28.50
2017-10-04T18:13:25.602Z,21.35
2017-10-04T18:15:53.383Z,17.17
2017-10-04T18:18:21.161Z,14.60
2017-10-04T18:20:49.766Z,15.10
2017-10-04T18:23:17.564Z,11.50
2017-10-04T18:25:45.360Z,13.18
2017-10-04T18:28:13.961Z,12.40
2017-10-04T18:30:41.734Z,13.55
2017-10-04T18:33:09.511Z,12.77
2017-10-04T18:35:37.351Z,17.20
2017-10-04T18:38:05.122Z,13.30
2017-10-04T18:40:32.911Z,21.83
2017-10-04T18:43:00.750Z,12.10
2017-10-04T18:45:28.527Z,15.48
2017-10-04T18:47:56.833Z,12.75
2017-10-04T18:50:24.839Z,10.95
2017-10-04T18:52:52.644Z,11.12
2017-10-04T18:55:20.422Z,13.55
2017-10-04T18:57:48.334Z,13.18
2017-10-04T19:00:16.172Z,13.07
2017-10-04T19:02:44.719Z,12.20
2017-10-04T19:05:12.565Z,13.60
2017-10-04T19:07:40.513Z,10.90
2017-10-04T19:10:08.419Z,11.30
2017-10-04T19:12:36.270Z,11.55
2017-10-04T19:15:04.053Z,12.88
2017-10-04T19:17:31.900Z,11.57
2017-10-04T19:19:59.737Z,8.93
2017-10-04T19:22:27.532Z,9.00
2017-10-04T19:24:55.335Z,10.00
2017-10-04T19:27:23.231Z,10.25
2017-10-04T19:29:51.122Z,12.45
2017-10-04T19:32:18.913Z,10.40
2017-10-04T19:34:47.529Z,14.85
2017-10-04T19:37:15.313Z,10.68
2017-10-04T19:39:43.086Z,10.88
2017-10-04T19:42:10.925Z,10.45
2017-10-04T19:44:38.706Z,14.38
2017-10-04T19:47:06.497Z,12.35
2017-10-04T19:49:34.330Z,12.40
2017-10-04T19:52:02.106Z,12.77
2017-10-04T19:54:29.879Z,15.35
2017-10-04T19:56:57.718Z,12.77
2017-10-04T19:59:25.533Z,9.20
2017-10-04T20:01:54.071Z,14.20
2017-10-04T20:04:21.907Z,9.43
2017-10-04T20:06:49.676Z,9.90
2017-10-04T20:09:17.446Z,8.55
2017-10-04T20:11:45.278Z,9.68
2017-10-04T20:14:13.078Z,8.90
2017-10-04T20:16:40.851Z,9.00
2017-10-04T20:19:08.707Z,11.48
2017-10-04T20:21:36.481Z,15.95
2017-10-04T20:24:04.258Z,8.75
2017-10-04T20:26:32.849Z,9.27
2017-10-04T20:29:01.391Z,9.75
2017-10-04T20:31:29.161Z,10.63
2017-10-04T20:33:56.986Z,8.18
2017-10-04T20:36:24.755Z,8.57
2017-10-04T20:38:52.525Z,9.50
2017-10-04T20:41:20.397Z,10.70
2017-10-04T20:43:48.172Z,10.73
2017-10-04T20:46:15.946Z,7.43
2017-10-04T20:48:43.807Z,7.78
2017-10-04T20:51:11.575Z,8.65
2017-10-04T20:53:39.341Z,7.90
2017-10-04T20:56:07.968Z,8.43
2017-10-04T20:58:35.737Z,7.35
2017-10-04T21:01:03.506Z,13.02
2017-10-04T21:03:31.350Z,8.00
2017-10-04T21:05:59.125Z,11.40
2017-10-04T21:08:27.011Z,7.80
2017-10-04T21:10:54.835Z,7.95
2017-10-04T21:13:22.610Z,10.68
2017-10-04T21:15:50.394Z,9.52
2017-10-04T21:18:18.256Z,7.55
2017-10-04T21:20:46.027Z,6.82
2017-10-04T21:23:13.796Z,10.00
2017-10-04T21:25:41.638Z,10.13
2017-10-04T21:28:09.429Z,6.00
2017-10-04T21:30:37.197Z,5.85
2017-10-04T21:33:05.793Z,10.82
2017-10-04T21:35:34.324Z,7.90
2017-10-04T21:38:02.091Z,4.62
2017-10-04T21:40:29.922Z,5.50
2017-10-04T21:42:57.687Z,4.82
2017-10-04T21:45:25.454Z,8.60
2017-10-04T21:47:53.282Z,5.70
2017-10-04T21:50:21.829Z,7.40
2017-10-04T21:52:49.609Z,4.62
2017-10-04T21:55:17.434Z,7.78
2017-10-04T21:57:45.218Z,3.75
2017-10-04T22:00:12.990Z,5.05
2017-10-04T22:02:40.845Z,3.95
2017-10-04T22:05:08.609Z,7.30
2017-10-04T22:07:36.379Z,8.43
2017-10-04T22:10:04.223Z,6.03
2017-10-04T22:12:31.991Z,5.03
2017-10-04T22:14:59.760Z,6.10
2017-10-04T22:17:27.611Z,5.95
2017-10-04T22:19:55.376Z,5.10
2017-10-04T22:22:23.137Z,3.47
2017-10-04T22:24:50.977Z,4.57
2017-10-04T22:27:18.746Z,8.20
2017-10-04T22:29:46.517Z,5.72
2017-10-04T22:32:14.354Z,6.15
2017-10-04T22:34:42.117Z,4.78
2017-10-04T22:37:09.889Z,3.65
2017-10-04T22:39:37.729Z,4.35
2017-10-04T22:42:05.508Z,6.37
2017-10-04T22:44:33.265Z,4.65
2017-10-04T22:47:01.089Z,4.95
2017-10-04T22:49:29.621Z,6.12
2017-10-04T22:51:57.385Z,3.17
2017-10-04T22:54:25.210Z,8.93
2017-10-04T22:56:52.977Z,4.62
2017-10-04T22:59:20.758Z,4.68
2017-10-04T23:01:48.583Z,3.42
2017-10-04T23:04:17.117Z,3.53
2017-10-04T23:06:44.885Z,3.67
2017-10-04T23:09:12.872Z,3.53
2017-10-04T23:11:40.638Z,2.97
2017-10-04T23:14:08.407Z,5.47
2017-10-04T23:16:37.022Z,8.48
2017-10-04T23:19:04.803Z,4.82
2017-10-04T23:21:32.579Z,4.53
2017-10-04T23:24:00.397Z,9.88
2017-10-04T23:26:28.161Z,5.00
2017-10-04T23:28:55.962Z,7.75
2017-10-04T23:31:23.804Z,2.75
2017-10-04T23:33:51.570Z,3.10
2017-10-04T23:36:19.337Z,3.78
2017-10-04T23:38:47.153Z,2.85
2017-10-04T23:41:15.759Z,3.90
2017-10-04T23:43:43.527Z,4.97
2017-10-04T23:46:11.353Z,2.97
2017-10-04T23:48:39.882Z,3.35
2017-10-04T23:51:07.646Z,3.87
2017-10-04T23:53:35.466Z,4.10
2017-10-04T23:56:03.992Z,4.12
2017-10-04T23:58:31.753Z,5.12
